Time;durP1;ratioP1;P1;durP2;ratioP2;P2;SDS_P1;SDS_P2;PMS_P1;PMS_P2;Temp;Humidity;BMP_temperature;BMP_pressure;BME280_temperature;BME280_humidity;BME280_pressure;Samples;Min_cycle;Max_cycle;Signal;HPM_P1;HPM_P2
2022/12/05 00:00:57;;;;;;;49.80;26.65;;;4.70;99.90;;;;;;4996132;28;20170;-84
2022/12/05 00:03:22;;;;;;;46.63;26.38;;;4.70;99.90;;;;;;4995815;28;20034;-84
2022/12/05 00:05:48;;;;;;;51.95;28.17;;;4.70;99.90;;;;;;5012403;28;20034;-84
2022/12/05 00:08:14;;;;;;;46.53;26.42;;;4.70;99.90;;;;;;5013489;28;20036;-85
2022/12/05 00:10:40;;;;;;;44.15;25.02;;;4.70;99.90;;;;;;5013725;28;20398;-84
2022/12/05 00:13:06;;;;;;;44.53;26.13;;;4.70;99.90;;;;;;4995235;28;20042;-85
2022/12/05 00:15:36;;;;;;;48.13;26.50;;;4.70;99.90;;;;;;5012294;28;20050;-84
2022/12/05 00:18:01;;;;;;;47.00;25.67;;;4.70;99.90;;;;;;5014067;28;20089;-84
2022/12/05 00:20:27;;;;;;;49.20;27.33;;;4.70;99.90;;;;;;5012654;28;20457;-85
2022/12/05 00:22:53;;;;;;;46.45;26.45;;;4.70;99.90;;;;;;5013548;28;20041;-84
2022/12/05 00:25:18;;;;;;;47.33;26.50;;;4.80;99.90;;;;;;5045436;23;20056;-85
2022/12/05 00:27:44;;;;;;;48.95;27.52;;;4.70;99.90;;;;;;5051999;28;20060;-84
2022/12/05 00:30:10;;;;;;;50.78;27.45;;;4.70;99.90;;;;;;5019012;28;20035;-85
2022/12/05 00:32:36;;;;;;;47.60;26.48;;;4.80;99.90;;;;;;5053248;28;20029;-85
2022/12/05 00:35:01;;;;;;;54.53;29.17;;;4.80;99.90;;;;;;5053092;28;20450;-84
2022/12/05 00:37:27;;;;;;;50.42;26.45;;;4.80;99.90;;;;;;5053156;28;20040;-85
2022/12/05 00:39:53;;;;;;;51.85;28.85;;;4.80;99.90;;;;;;5051816;28;20029;-85
2022/12/05 00:42:18;;;;;;;54.97;28.92;;;4.70;99.90;;;;;;5052439;28;20104;-85
2022/12/05 00:44:44;;;;;;;53.38;27.42;;;4.80;99.90;;;;;;5051648;28;20462;-85
2022/12/05 00:47:10;;;;;;;50.35;27.73;;;4.80;99.90;;;;;;5018782;28;20494;-85
2022/12/05 00:49:35;;;;;;;49.63;28.23;;;4.80;99.90;;;;;;5051716;28;20032;-84
2022/12/05 00:52:01;;;;;;;52.78;28.42;;;4.80;99.90;;;;;;5051767;28;20129;-84
2022/12/05 00:54:27;;;;;;;57.20;29.02;;;4.80;99.90;;;;;;5051716;28;20024;-85
2022/12/05 00:56:56;;;;;;;50.90;27.83;;;4.80;99.90;;;;;;5035008;28;20063;-84
2022/12/05 00:59:22;;;;;;;55.63;29.15;;;4.80;99.90;;;;;;5051526;28;20087;-85
2022/12/05 01:01:49;;;;;;;55.97;28.45;;;4.80;99.90;;;;;;5052965;28;20432;-85
2022/12/05 01:04:23;;;;;;;52.75;28.42;;;4.80;99.90;;;;;;5051448;28;20025;-85
2022/12/05 01:06:50;;;;;;;54.50;28.55;;;4.80;99.90;;;;;;5052900;28;20539;-84
2022/12/05 01:09:18;;;;;;;53.67;28.48;;;4.80;99.90;;;;;;5051298;28;20017;-85
2022/12/05 01:11:51;;;;;;;58.97;28.73;;;4.80;99.90;;;;;;5035069;28;20059;-84
2022/12/05 01:14:19;;;;;;;51.25;27.83;;;4.80;99.90;;;;;;5052641;28;20021;-85
2022/12/05 01:16:46;;;;;;;58.45;30.20;;;4.80;99.90;;;;;;5053543;28;20491;-84
2022/12/05 01:19:15;;;;;;;58.20;29.70;;;4.90;99.90;;;;;;5054883;28;20028;-84
2022/12/05 01:21:41;;;;;;;51.60;27.42;;;4.90;99.90;;;;;;5055356;28;20404;-84
2022/12/05 01:24:08;;;;;;;52.58;27.23;;;4.90;99.90;;;;;;5056008;28;20045;-85
2022/12/05 01:26:33;;;;;;;52.20;28.48;;;4.90;99.90;;;;;;5055043;28;20082;-84
2022/12/05 01:28:59;;;;;;;53.10;28.13;;;4.90;99.90;;;;;;5054910;28;20111;-84
2022/12/05 01:31:28;;;;;;;56.30;28.90;;;4.90;99.90;;;;;;5056144;28;20021;-85
2022/12/05 01:33:56;;;;;;;51.03;27.30;;;4.90;99.90;;;;;;5054723;28;20084;-84
2022/12/05 01:36:23;;;;;;;50.45;27.17;;;4.90;99.90;;;;;;5054762;28;20434;-84
2022/12/05 01:38:49;;;;;;;51.88;26.58;;;4.90;99.90;;;;;;5038141;28;20060;-84
2022/12/05 01:41:22;;;;;;;54.30;26.77;;;4.90;99.90;;;;;;5054634;28;20489;-84
2022/12/05 01:44:19;;;;;;;53.08;28.63;;;4.90;99.90;;;;;;5054890;28;20024;-84
2022/12/05 01:46:50;;;;;;;52.63;27.75;;;4.90;99.90;;;;;;5014234;28;20033;-84
2022/12/05 01:49:35;;;;;;;51.95;28.10;;;4.90;99.90;;;;;;5054443;28;20025;-84
2022/12/05 01:52:19;;;;;;;52.78;27.48;;;4.90;99.90;;;;;;5055426;28;20028;-84
2022/12/05 01:54:46;;;;;;;56.78;29.52;;;4.90;99.90;;;;;;5056176;28;20029;-84
2022/12/05 01:57:13;;;;;;;53.60;28.75;;;4.90;99.90;;;;;;5054471;28;20047;-85
2022/12/05 01:59:44;;;;;;;52.95;27.98;;;4.90;99.90;;;;;;5037694;28;20029;-85
2022/12/05 02:02:10;;;;;;;53.00;27.42;;;4.90;99.90;;;;;;5054843;28;20495;-85
2022/12/05 02:04:59;;;;;;;51.83;27.98;;;4.90;99.90;;;;;;5054384;28;20029;-85
2022/12/05 02:07:25;;;;;;;51.75;26.05;;;4.90;99.90;;;;;;5054141;28;20492;-85
2022/12/05 02:09:51;;;;;;;50.95;26.63;;;4.90;99.90;;;;;;5055448;28;20095;-85
2022/12/05 02:12:19;;;;;;;52.60;27.77;;;5.00;99.90;;;;;;5054313;28;20037;-85
2022/12/05 02:15:22;;;;;;;54.25;26.77;;;4.90;99.90;;;;;;5055484;28;20100;-84
2022/12/05 02:18:26;;;;;;;50.50;27.23;;;5.00;99.90;;;;;;5053880;28;20044;-84
2022/12/05 02:24:32;;;;;;;;;;;5.00;99.90;;;;;;5053356;28;20091;-84
2022/12/05 02:27:19;;;;;;;50.28;26.40;;;5.00;99.90;;;;;;5053387;28;19913;-84
2022/12/05 02:30:05;;;;;;;49.22;26.25;;;4.90;99.90;;;;;;5053734;28;20413;-83
2022/12/05 02:32:47;;;;;;;54.15;27.10;;;4.90;99.90;;;;;;5053580;28;20025;-84
2022/12/05 02:35:25;;;;;;;48.53;24.73;;;4.90;99.90;;;;;;5053514;28;20540;-84
2022/12/05 02:38:20;;;;;;;48.42;26.45;;;4.90;99.90;;;;;;5054741;28;20094;-84
2022/12/05 02:41:11;;;;;;;47.60;26.08;;;5.00;99.90;;;;;;5053439;28;20446;-83
2022/12/05 02:43:40;;;;;;;44.63;25.23;;;5.00;99.90;;;;;;5053525;28;20052;-84
2022/12/05 02:46:20;;;;;;;44.75;24.48;;;5.00;99.90;;;;;;5053300;28;20090;-84
2022/12/05 02:48:49;;;;;;;45.58;24.15;;;5.00;99.90;;;;;;5054939;28;20120;-84
2022/12/05 02:51:21;;;;;;;50.00;26.77;;;5.00;99.90;;;;;;5053202;28;20044;-84
2022/12/05 02:53:48;;;;;;;47.58;26.45;;;5.00;99.90;;;;;;5053117;28;20013;-85
2022/12/05 02:56:15;;;;;;;46.20;26.08;;;5.00;99.90;;;;;;5053264;28;20021;-84
2022/12/05 02:58:52;;;;;;;45.78;25.40;;;5.00;99.90;;;;;;5054580;28;20108;-84
2022/12/05 03:01:20;;;;;;;48.92;25.27;;;5.10;99.90;;;;;;5053192;28;20065;-83
2022/12/05 03:03:47;;;;;;;46.35;26.45;;;5.10;99.90;;;;;;5053366;28;20036;-84
2022/12/05 03:06:40;;;;;;;48.42;25.80;;;5.10;99.90;;;;;;5036553;28;20057;-84
2022/12/05 03:09:15;;;;;;;48.47;25.85;;;5.10;99.90;;;;;;5052952;28;20017;-84
2022/12/05 03:11:49;;;;;;;46.83;25.40;;;5.10;99.90;;;;;;5053043;28;20025;-84
2022/12/05 03:14:21;;;;;;;52.72;26.90;;;5.10;99.90;;;;;;5054237;28;20032;-84
2022/12/05 03:16:52;;;;;;;47.65;25.67;;;5.10;99.90;;;;;;5054226;28;20032;-84
2022/12/05 03:19:47;;;;;;;50.85;25.98;;;5.10;99.90;;;;;;5036147;28;20506;-84
2022/12/05 03:22:26;;;;;;;45.92;25.27;;;5.10;99.90;;;;;;5052377;28;20397;-84
2022/12/05 03:24:53;;;;;;;47.03;24.48;;;5.10;99.90;;;;;;5052394;28;20497;-84
2022/12/05 03:27:47;;;;;;;54.38;25.58;;;5.10;99.90;;;;;;5019695;28;20033;-84
2022/12/05 03:30:16;;;;;;;46.30;23.85;;;5.20;99.90;;;;;;5052963;28;20017;-84
2022/12/05 03:33:09;;;;;;;51.30;25.85;;;5.10;99.90;;;;;;5052547;28;20028;-84
2022/12/05 03:36:07;;;;;;;41.28;23.92;;;5.20;99.90;;;;;;5053741;28;20021;-84
2022/12/05 03:38:40;;;;;;;48.22;25.48;;;5.20;99.90;;;;;;5053290;28;20021;-84
2022/12/05 03:41:24;;;;;;;48.80;25.90;;;5.20;99.90;;;;;;5052412;28;20461;-84
2022/12/05 03:43:59;;;;;;;46.88;25.10;;;5.20;99.90;;;;;;5052444;28;20512;-84
2022/12/05 03:46:48;;;;;;;51.33;25.92;;;5.20;99.90;;;;;;5052299;28;20029;-84
2022/12/05 03:52:46;;;;;;;41.97;23.27;;;5.20;99.90;;;;;;4999773;28;20113;-84
2022/12/05 03:55:13;;;;;;;48.42;24.60;;;5.20;99.90;;;;;;5053520;28;20025;-84
2022/12/05 03:57:47;;;;;;;50.42;25.02;;;5.20;99.90;;;;;;5053543;28;20029;-84
2022/12/05 04:00:22;;;;;;;44.25;23.40;;;5.20;99.90;;;;;;5053950;28;20075;-84
2022/12/05 04:03:18;;;;;;;42.80;23.13;;;5.20;99.90;;;;;;5052069;28;20450;-84
2022/12/05 04:05:46;;;;;;;41.90;23.33;;;5.20;99.90;;;;;;5052156;28;20462;-84
2022/12/05 04:08:18;;;;;;;43.00;23.38;;;5.30;99.90;;;;;;5051988;28;20481;-84
2022/12/05 04:10:48;;;;;;;45.90;24.75;;;5.30;99.90;;;;;;5052200;28;20417;-85
2022/12/05 04:13:20;;;;;;;43.50;23.42;;;5.30;99.90;;;;;;5052400;28;20025;-86
2022/12/05 04:18:48;;;;;;;41.90;22.63;;;5.30;99.90;;;;;;5054227;28;20110;-85
2022/12/05 04:27:26;;;;;;;45.35;22.77;;;5.30;99.90;;;;;;5008734;28;20180;-85
2022/12/05 04:30:14;;;;;;;46.53;23.83;;;5.30;99.90;;;;;;5031779;28;20056;-86
2022/12/05 04:32:59;;;;;;;46.50;24.92;;;5.30;99.90;;;;;;5048308;28;20072;-86
2022/12/05 04:35:34;;;;;;;43.50;23.73;;;5.30;99.90;;;;;;5053279;28;20091;-86
2022/12/05 04:38:10;;;;;;;46.22;24.95;;;5.30;99.90;;;;;;5051902;28;20021;-85
2022/12/05 04:41:04;;;;;;;50.63;25.42;;;5.30;99.90;;;;;;5051942;28;20098;-85
2022/12/05 04:43:38;;;;;;;45.25;25.20;;;5.30;99.90;;;;;;5054410;28;20074;-84
2022/12/05 04:46:07;;;;;;;43.38;23.88;;;5.40;99.90;;;;;;5051643;28;20055;-84
2022/12/05 04:48:36;;;;;;;41.83;23.65;;;5.40;99.90;;;;;;5052992;28;20025;-84
2022/12/05 04:51:03;;;;;;;44.17;24.10;;;5.40;99.90;;;;;;5052973;28;20021;-84
2022/12/05 04:53:30;;;;;;;43.95;23.77;;;5.40;99.90;;;;;;5055532;28;20482;-84
2022/12/05 04:55:59;;;;;;;45.00;25.80;;;5.40;99.90;;;;;;5056848;28;20413;-85
2022/12/05 04:58:26;;;;;;;46.03;25.50;;;5.40;99.90;;;;;;5055479;28;20531;-84
2022/12/05 05:01:00;;;;;;;42.50;23.50;;;5.40;99.90;;;;;;5055443;28;20021;-85
2022/12/05 05:03:42;;;;;;;44.60;25.13;;;5.40;99.90;;;;;;5055465;28;20025;-85
2022/12/05 05:06:11;;;;;;;45.08;24.58;;;5.40;99.90;;;;;;5055534;28;20029;-85
2022/12/05 05:08:45;;;;;;;44.10;24.02;;;5.40;99.90;;;;;;5055609;28;20013;-85
2022/12/05 05:11:23;;;;;;;39.25;22.90;;;5.40;99.90;;;;;;5040122;28;20430;-85
2022/12/05 05:13:48;;;;;;;43.35;23.60;;;5.40;99.90;;;;;;5055390;28;20036;-84
2022/12/05 05:16:24;;;;;;;39.78;22.85;;;5.40;99.90;;;;;;5055217;28;20390;-84
2022/12/05 05:18:50;;;;;;;39.97;23.33;;;5.40;99.90;;;;;;5054977;28;20028;-86
2022/12/05 05:21:19;;;;;;;38.08;22.10;;;5.40;99.90;;;;;;5039710;28;20100;-86
2022/12/05 05:23:44;;;;;;;39.80;23.55;;;5.50;99.90;;;;;;5035132;28;20025;-86
2022/12/05 05:26:10;;;;;;;39.58;22.88;;;5.40;99.90;;;;;;5051419;28;20065;-85
2022/12/05 05:28:36;;;;;;;42.30;23.48;;;5.50;99.90;;;;;;5035213;28;20418;-84
2022/12/05 05:31:05;;;;;;;39.22;22.85;;;5.40;99.90;;;;;;5018495;28;20037;-84
2022/12/05 05:33:32;;;;;;;43.08;23.02;;;5.40;99.90;;;;;;5035104;28;20485;-85
2022/12/05 05:36:12;;;;;;;39.20;22.45;;;5.50;99.90;;;;;;5088599;28;20025;-86
2022/12/05 05:38:45;;;;;;;44.13;23.40;;;5.50;99.90;;;;;;5056098;28;20047;-85
2022/12/05 05:41:16;;;;;;;40.78;22.83;;;5.50;99.90;;;;;;5086409;28;20107;-85
2022/12/05 05:43:42;;;;;;;;;;;5.50;99.90;;;;;;5054750;28;20029;-84
2022/12/05 05:46:09;;;;;;;37.58;21.55;;;5.50;99.90;;;;;;5054233;28;19917;-85
2022/12/05 05:48:35;;;;;;;42.97;23.33;;;5.50;99.90;;;;;;5055704;28;20108;-87
2022/12/05 05:51:02;;;;;;;36.30;21.52;;;5.50;99.90;;;;;;5055700;28;20114;-85
2022/12/05 05:53:28;;;;;;;37.47;21.75;;;5.50;99.90;;;;;;5054238;28;20029;-84
2022/12/05 05:55:54;;;;;;;38.38;22.60;;;5.50;99.90;;;;;;5037933;28;20025;-85
2022/12/05 05:58:20;;;;;;;38.00;21.77;;;5.50;99.90;;;;;;5037776;28;20083;-85
2022/12/05 06:00:46;;;;;;;39.75;22.73;;;5.50;99.90;;;;;;5054212;28;20014;-85
2022/12/05 06:03:12;;;;;;;39.65;22.63;;;5.50;99.90;;;;;;5020632;28;20037;-84
2022/12/05 06:05:37;;;;;;;35.33;21.60;;;5.50;99.90;;;;;;5036444;28;20108;-84
2022/12/05 06:08:03;;;;;;;35.20;21.27;;;5.50;99.90;;;;;;5054014;28;20029;-85
2022/12/05 06:10:30;;;;;;;38.00;22.35;;;5.50;99.90;;;;;;5037529;28;20025;-85
2022/12/05 06:12:57;;;;;;;38.20;21.40;;;5.50;99.90;;;;;;5054205;28;20457;-84
2022/12/05 06:15:23;;;;;;;40.30;21.98;;;5.50;99.90;;;;;;5053921;28;20021;-84
2022/12/05 06:17:49;;;;;;;38.28;22.70;;;5.50;99.90;;;;;;5053967;28;20037;-84
2022/12/05 06:20:15;;;;;;;37.50;22.05;;;5.50;99.90;;;;;;5058515;28;20053;-83
2022/12/05 06:22:41;;;;;;;38.33;21.95;;;5.60;99.90;;;;;;5058918;28;20029;-84
2022/12/05 06:25:07;;;;;;;38.97;21.58;;;5.60;99.90;;;;;;5053639;28;20052;-85
2022/12/05 06:27:33;;;;;;;38.10;21.58;;;5.60;99.90;;;;;;5037210;28;20064;-85
2022/12/05 06:29:59;;;;;;;37.10;22.33;;;5.60;99.90;;;;;;5053681;28;20106;-85
2022/12/05 06:32:28;;;;;;;36.65;21.88;;;5.60;99.90;;;;;;5053787;28;20509;-85
2022/12/05 06:34:54;;;;;;;36.88;22.10;;;5.60;99.90;;;;;;5053642;28;20072;-84
2022/12/05 06:37:20;;;;;;;37.45;23.27;;;5.60;99.90;;;;;;5036937;28;20166;-85
2022/12/05 06:39:45;;;;;;;37.13;21.83;;;5.60;99.90;;;;;;5053528;28;20029;-84
2022/12/05 06:42:11;;;;;;;36.50;22.02;;;5.60;99.90;;;;;;5037095;28;20025;-85
2022/12/05 06:44:37;;;;;;;39.17;22.13;;;5.60;99.90;;;;;;5054749;28;20035;-85
2022/12/05 06:47:02;;;;;;;36.92;21.27;;;5.60;99.90;;;;;;5038570;28;20025;-85
2022/12/05 06:49:31;;;;;;;37.13;22.30;;;5.60;99.90;;;;;;5054903;28;20025;-85
2022/12/05 06:51:58;;;;;;;36.28;21.73;;;5.60;99.90;;;;;;5037196;28;20021;-86
2022/12/05 06:54:24;;;;;;;35.47;21.85;;;5.60;99.90;;;;;;5070211;28;20389;-85
2022/12/05 06:56:49;;;;;;;36.42;22.27;;;5.60;99.90;;;;;;5053635;28;20035;-85
2022/12/05 06:59:20;;;;;;;38.90;22.08;;;5.70;99.90;;;;;;5054396;28;20029;-85
2022/12/05 07:01:46;;;;;;;38.03;23.17;;;5.70;99.90;;;;;;5053331;28;20025;-85
2022/12/05 07:04:23;;;;;;;40.88;22.35;;;5.70;99.90;;;;;;5070012;28;20055;-85
2022/12/05 07:06:49;;;;;;;37.80;23.30;;;5.70;99.90;;;;;;5053052;28;20079;-85
2022/12/05 07:09:21;;;;;;;35.40;21.52;;;5.70;99.90;;;;;;5054705;28;20041;-86
2022/12/05 07:11:49;;;;;;;36.40;22.55;;;5.70;99.90;;;;;;5053139;28;20090;-86
2022/12/05 07:14:15;;;;;;;37.10;21.77;;;5.70;99.90;;;;;;5052939;28;20472;-88
2022/12/05 07:16:40;;;;;;;38.15;22.85;;;5.70;99.90;;;;;;5036645;28;20057;-87
2022/12/05 07:19:06;;;;;;;38.33;22.90;;;5.70;99.90;;;;;;5052985;28;20032;-87
2022/12/05 07:21:32;;;;;;;33.20;22.00;;;5.70;99.90;;;;;;5036263;28;20106;-87
2022/12/05 07:24:17;;;;;;;37.22;22.17;;;5.70;99.90;;;;;;5052907;28;20021;-87
2022/12/05 07:26:42;;;;;;;36.95;21.85;;;5.70;99.90;;;;;;5069476;28;20045;-87
2022/12/05 07:29:09;;;;;;;33.45;21.70;;;5.70;99.90;;;;;;5069613;28;20389;-87
2022/12/05 07:31:35;;;;;;;35.70;22.83;;;5.70;99.90;;;;;;5052998;28;20025;-87
2022/12/05 07:34:01;;;;;;;37.33;21.75;;;5.80;99.90;;;;;;5069778;28;20090;-87
2022/12/05 07:36:27;;;;;;;34.35;20.30;;;5.70;99.90;;;;;;5069728;28;20028;-87
2022/12/05 07:38:57;;;;;;;33.03;20.13;;;5.70;99.90;;;;;;5053813;28;20033;-87
2022/12/05 07:41:28;;;;;;;30.50;19.90;;;5.80;99.90;;;;;;5036508;28;20060;-87
2022/12/05 07:43:55;;;;;;;32.15;19.95;;;5.80;99.90;;;;;;5052970;28;20095;-87
2022/12/05 07:46:22;;;;;;;32.72;20.65;;;5.80;99.90;;;;;;5052658;28;20029;-86
2022/12/05 07:48:48;;;;;;;30.80;19.42;;;5.80;99.90;;;;;;5036260;28;20021;-87
2022/12/05 07:51:14;;;;;;;32.25;20.65;;;5.80;99.90;;;;;;5053866;28;20024;-87
2022/12/05 07:53:42;;;;;;;33.05;20.70;;;5.80;99.90;;;;;;5052590;28;20032;-87
2022/12/05 07:56:09;;;;;;;32.95;20.52;;;5.80;99.90;;;;;;5036080;28;20021;-87
2022/12/05 07:58:36;;;;;;;30.38;18.92;;;5.80;99.90;;;;;;5052470;28;20099;-87
2022/12/05 08:01:23;;;;;;;30.27;20.08;;;5.80;99.90;;;;;;5052325;28;20481;-87
2022/12/05 08:03:52;;;;;;;30.30;20.00;;;5.80;99.90;;;;;;5067591;28;20096;-85
2022/12/05 08:06:23;;;;;;;31.27;19.70;;;5.80;99.90;;;;;;5051471;28;20025;-85
2022/12/05 08:08:50;;;;;;;31.35;19.70;;;5.80;99.90;;;;;;5051499;28;20021;-85
2022/12/05 08:11:19;;;;;;;30.85;19.02;;;5.80;99.90;;;;;;5049071;28;20025;-85
2022/12/05 08:13:51;;;;;;;29.48;20.02;;;5.80;99.90;;;;;;5052677;28;20017;-84
2022/12/05 08:16:21;;;;;;;28.38;18.45;;;5.80;99.90;;;;;;5041298;28;20036;-85
2022/12/05 08:18:47;;;;;;;30.00;18.60;;;5.80;99.90;;;;;;5052513;28;20025;-84
2022/12/05 08:21:16;;;;;;;32.28;20.40;;;5.80;99.90;;;;;;5064646;28;20029;-84
2022/12/05 08:23:42;;;;;;;32.88;20.75;;;5.80;99.90;;;;;;5053162;28;20078;-84
2022/12/05 08:26:11;;;;;;;29.23;19.52;;;5.80;99.90;;;;;;5049952;28;20052;-87
2022/12/05 08:28:37;;;;;;;30.52;19.95;;;5.90;99.90;;;;;;5055824;28;20017;-87
2022/12/05 08:31:05;;;;;;;32.08;19.67;;;5.80;99.90;;;;;;5055874;28;20178;-87
2022/12/05 08:33:31;;;;;;;32.00;21.10;;;5.80;99.90;;;;;;5055738;28;20022;-87
2022/12/05 08:36:00;;;;;;;33.80;21.10;;;5.80;99.90;;;;;;5067784;28;20029;-87
2022/12/05 08:38:25;;;;;;;33.88;21.33;;;5.90;99.90;;;;;;5057746;28;20024;-87
2022/12/05 08:40:51;;;;;;;33.08;21.55;;;5.80;99.90;;;;;;5055974;28;20025;-87
2022/12/05 08:43:17;;;;;;;36.47;22.48;;;5.90;99.90;;;;;;5052995;28;20486;-87
2022/12/05 08:45:49;;;;;;;34.28;21.52;;;5.90;99.90;;;;;;5050938;28;20025;-87
2022/12/05 08:48:15;;;;;;;35.45;21.25;;;5.90;99.90;;;;;;5058315;28;20025;-87
2022/12/05 08:50:41;;;;;;;34.88;22.30;;;5.90;99.90;;;;;;5053779;28;20079;-87
2022/12/05 08:53:06;;;;;;;38.28;22.95;;;5.90;99.90;;;;;;5058310;28;20079;-86
2022/12/05 08:55:34;;;;;;;40.67;23.10;;;5.90;99.90;;;;;;5047044;28;20036;-86
2022/12/05 08:57:59;;;;;;;38.92;23.75;;;5.90;99.90;;;;;;5057818;28;20481;-85
2022/12/05 09:00:25;;;;;;;41.42;23.90;;;5.90;99.90;;;;;;5053716;28;20040;-84
2022/12/05 09:02:51;;;;;;;38.17;23.17;;;5.90;99.90;;;;;;5051881;28;20033;-84
2022/12/05 09:05:16;;;;;;;38.72;22.17;;;5.90;99.90;;;;;;5048218;28;20534;-84
2022/12/05 09:07:42;;;;;;;38.97;23.50;;;5.90;99.90;;;;;;5055205;28;20124;-84
2022/12/05 09:10:09;;;;;;;36.67;23.08;;;5.90;99.90;;;;;;5067666;28;20025;-86
2022/12/05 09:12:38;;;;;;;37.53;22.67;;;5.90;99.90;;;;;;5056160;28;20083;-86
2022/12/05 09:15:06;;;;;;;38.03;22.77;;;5.90;99.90;;;;;;5055030;28;20535;-86
2022/12/05 09:17:32;;;;;;;37.50;22.40;;;5.90;99.90;;;;;;5053966;28;20057;-85
2022/12/05 09:19:58;;;;;;;37.65;23.85;;;6.00;99.90;;;;;;5055887;28;20032;-86
2022/12/05 09:22:24;;;;;;;34.95;22.10;;;6.00;99.90;;;;;;5043499;28;20033;-84
2022/12/05 09:24:50;;;;;;;39.28;23.10;;;6.00;99.90;;;;;;5044685;28;20437;-84
2022/12/05 09:27:16;;;;;;;42.08;23.88;;;5.90;99.90;;;;;;5052752;28;20485;-84
2022/12/05 09:29:42;;;;;;;37.45;23.00;;;6.00;99.90;;;;;;5044610;28;20021;-85
2022/12/05 09:32:09;;;;;;;34.90;21.35;;;6.00;99.90;;;;;;5054318;28;20485;-85
2022/12/05 09:34:36;;;;;;;38.25;23.40;;;6.00;99.90;;;;;;5054325;28;20025;-84
2022/12/05 09:37:03;;;;;;;39.90;24.08;;;6.00;99.90;;;;;;5065698;28;20382;-83
2022/12/05 09:39:29;;;;;;;37.85;22.25;;;6.00;99.90;;;;;;5037558;28;20028;-84
2022/12/05 09:42:17;;;;;;;37.22;22.08;;;6.00;99.90;;;;;;5049761;28;20033;-83
2022/12/05 09:45:01;;;;;;;41.35;23.60;;;6.00;99.90;;;;;;5055376;28;20033;-87
2022/12/05 09:47:29;;;;;;;37.58;22.88;;;6.00;99.90;;;;;;5056881;28;20071;-85
2022/12/05 09:50:19;;;;;;;40.33;24.17;;;6.00;99.90;;;;;;5055959;28;20055;-86
2022/12/05 09:53:08;;;;;;;48.85;27.30;;;6.00;99.90;;;;;;5053128;28;20018;-85
2022/12/05 09:55:48;;;;;;;41.92;24.85;;;6.10;99.90;;;;;;5050954;28;20027;-86
2022/12/05 09:58:39;;;;;;;37.83;23.15;;;6.00;99.90;;;;;;5060823;28;20404;-85
2022/12/05 10:01:19;;;;;;;37.40;23.60;;;6.00;99.90;;;;;;5053764;28;20086;-87
2022/12/05 10:03:54;;;;;;;38.05;22.95;;;6.00;99.90;;;;;;5050610;28;20397;-88
2022/12/05 10:06:28;;;;;;;43.15;23.42;;;6.10;99.90;;;;;;5053634;28;20028;-88
2022/12/05 10:09:16;;;;;;;40.97;24.40;;;6.10;99.90;;;;;;5053833;28;20466;-87
2022/12/05 10:12:14;;;;;;;39.83;23.63;;;6.10;99.90;;;;;;5053901;28;20070;-87
2022/12/05 10:14:55;;;;;;;40.63;22.83;;;6.10;99.90;;;;;;5068638;28;20426;-87
2022/12/05 10:17:25;;;;;;;39.75;23.50;;;6.10;99.90;;;;;;5050118;28;20033;-88
2022/12/05 10:19:53;;;;;;;35.08;21.80;;;6.10;99.90;;;;;;5053996;28;20382;-87
2022/12/05 10:22:27;;;;;;;35.22;21.73;;;6.10;99.90;;;;;;5053187;28;20104;-87
2022/12/05 10:25:01;;;;;;;37.35;23.77;;;6.10;99.90;;;;;;5054735;28;20029;-87
2022/12/05 10:27:35;;;;;;;37.28;23.27;;;6.10;99.90;;;;;;5051704;28;20117;-88
2022/12/05 10:30:04;;;;;;;38.08;23.17;;;6.10;99.90;;;;;;5053316;28;20021;-87
2022/12/05 10:32:39;;;;;;;41.20;23.65;;;6.10;99.90;;;;;;5053424;28;20382;-87
2022/12/05 10:35:18;;;;;;;39.45;23.80;;;6.10;99.90;;;;;;5052181;28;20017;-85
2022/12/05 10:37:50;;;;;;;39.78;23.50;;;6.10;99.90;;;;;;5052403;28;20033;-86
2022/12/05 10:40:17;;;;;;;42.28;24.00;;;6.10;99.90;;;;;;5047083;28;20635;-86
2022/12/05 10:42:58;;;;;;;41.13;23.35;;;6.10;99.90;;;;;;5046230;28;20048;-86
2022/12/05 10:45:24;;;;;;;39.30;24.05;;;6.10;99.90;;;;;;5031184;28;20377;-86
2022/12/05 10:47:55;;;;;;;41.83;23.40;;;6.10;99.90;;;;;;5033920;28;20021;-85
2022/12/05 10:50:35;;;;;;;39.78;23.30;;;6.10;99.90;;;;;;5052019;28;20049;-85
2022/12/05 10:53:03;;;;;;;37.78;22.08;;;6.20;99.90;;;;;;5051172;28;20127;-85
2022/12/05 10:55:36;;;;;;;40.00;23.25;;;6.10;99.90;;;;;;5052757;28;20028;-85
2022/12/05 10:58:16;;;;;;;42.40;24.13;;;6.10;99.90;;;;;;5050442;28;20021;-85
2022/12/05 11:00:47;;;;;;;38.63;22.73;;;6.10;99.90;;;;;;5051623;28;20405;-86
2022/12/05 11:03:27;;;;;;;39.93;23.90;;;6.10;99.90;;;;;;5051635;28;20032;-86
2022/12/05 11:05:55;;;;;;;36.83;21.67;;;6.10;99.90;;;;;;5050216;28;20025;-85
2022/12/05 11:08:30;;;;;;;34.33;21.33;;;6.10;99.90;;;;;;5049589;28;20385;-86
2022/12/05 11:11:20;;;;;;;35.22;21.23;;;6.10;99.90;;;;;;5052302;28;20024;-86
2022/12/05 11:13:57;;;;;;;31.35;20.33;;;6.10;99.90;;;;;;5052765;28;20075;-86
2022/12/05 11:16:34;;;;;;;29.75;18.92;;;6.00;99.90;;;;;;5048011;28;20037;-87
2022/12/05 11:19:18;;;;;;;33.67;19.75;;;6.00;99.90;;;;;;5051787;28;20028;-85
2022/12/05 11:21:44;;;;;;;33.00;20.77;;;6.00;99.90;;;;;;5052580;28;20021;-85
2022/12/05 11:24:28;;;;;;;31.25;19.77;;;6.00;99.90;;;;;;5023843;28;20043;-87
2022/12/05 11:26:56;;;;;;;30.00;18.77;;;6.00;99.90;;;;;;5053116;28;20049;-87
2022/12/05 11:29:35;;;;;;;30.77;19.20;;;6.00;99.90;;;;;;5052660;28;20021;-87
2022/12/05 11:32:05;;;;;;;28.90;18.77;;;6.00;99.90;;;;;;5054074;28;20025;-88
2022/12/05 11:34:40;;;;;;;25.13;17.88;;;6.00;99.90;;;;;;5052883;28;20478;-88
2022/12/05 11:37:22;;;;;;;28.48;18.48;;;6.00;99.90;;;;;;5050223;28;20043;-88
2022/12/05 11:39:48;;;;;;;31.88;18.45;;;6.00;99.90;;;;;;5052300;28;20082;-85
2022/12/05 11:42:57;;;;;;;27.30;17.55;;;6.00;99.90;;;;;;5035258;28;20457;-85
2022/12/05 11:45:41;;;;;;;27.75;16.50;;;5.90;99.90;;;;;;5019874;28;20033;-85
2022/12/05 11:49:04;;;;;;;22.73;15.48;;;5.90;99.90;;;;;;5049833;28;20033;-85
2022/12/05 11:51:35;;;;;;;24.58;15.68;;;5.90;99.90;;;;;;4991811;28;20034;-85
2022/12/05 11:54:28;;;;;;;;;;;5.90;99.90;;;;;;5055035;28;20040;-85
2022/12/05 11:56:59;;;;;;;23.48;14.60;;;5.90;99.90;;;;;;5050144;28;19947;-85
2022/12/05 12:00:03;;;;;;;23.92;13.70;;;5.80;99.90;;;;;;5050706;28;20113;-85
2022/12/05 12:03:01;;;;;;;22.50;13.82;;;5.80;99.90;;;;;;5049642;28;20029;-86
2022/12/05 12:05:40;;;;;;;22.88;14.27;;;5.80;99.90;;;;;;5066626;28;20025;-87
2022/12/05 12:08:24;;;;;;;21.30;13.63;;;5.80;99.90;;;;;;5050167;28;20040;-86
2022/12/05 12:11:14;;;;;;;23.10;13.55;;;5.80;99.90;;;;;;5051465;28;20048;-87
2022/12/05 12:14:02;;;;;;;20.25;12.95;;;5.80;99.90;;;;;;5049008;28;20017;-86
2022/12/05 12:17:02;;;;;;;20.65;13.13;;;5.80;99.90;;;;;;5046730;28;20104;-85
2022/12/05 12:19:31;;;;;;;22.75;13.73;;;5.80;99.90;;;;;;5066589;28;20393;-85
2022/12/05 12:22:20;;;;;;;20.05;13.63;;;5.80;99.90;;;;;;5052753;28;20036;-85
2022/12/05 12:25:08;;;;;;;19.38;12.95;;;5.90;99.90;;;;;;5049441;28;20037;-86
2022/12/05 12:27:40;;;;;;;20.67;12.95;;;5.90;99.90;;;;;;5049713;28;20037;-85
2022/12/05 12:30:16;;;;;;;26.33;14.70;;;5.90;99.90;;;;;;5046257;28;20047;-86
2022/12/05 12:33:06;;;;;;;24.17;13.63;;;5.90;99.90;;;;;;5046856;28;20609;-86
2022/12/05 12:36:10;;;;;;;21.83;13.18;;;6.00;99.90;;;;;;5062298;28;20095;-86
2022/12/05 12:41:18;;;;;;;20.73;13.65;;;6.00;99.90;;;;;;5018817;28;20046;-86
2022/12/05 12:44:02;;;;;;;19.40;13.20;;;6.00;99.90;;;;;;5006930;28;20069;-86
2022/12/05 12:46:52;;;;;;;18.00;12.13;;;6.00;99.90;;;;;;5006901;28;20038;-86
2022/12/05 12:49:48;;;;;;;19.45;12.32;;;6.00;99.90;;;;;;5011341;28;20029;-86
2022/12/05 12:52:21;;;;;;;18.90;12.70;;;6.00;99.90;;;;;;5008740;28;20076;-86
2022/12/05 12:58:20;;;;;;;;;;;6.10;99.90;;;;;;5026859;28;20036;-86
2022/12/05 13:01:19;;;;;;;21.20;13.48;;;6.10;99.90;;;;;;5006780;28;19905;-86
2022/12/05 13:04:12;;;;;;;23.65;14.13;;;6.10;99.90;;;;;;5032479;28;20029;-91
2022/12/05 13:06:51;;;;;;;22.40;13.50;;;6.10;99.90;;;;;;5016199;28;20028;-90
2022/12/05 13:09:19;;;;;;;18.48;12.75;;;6.10;99.90;;;;;;5037603;28;20028;-90
2022/12/05 13:11:48;;;;;;;21.85;14.02;;;6.10;99.90;;;;;;5018091;28;20055;-90
2022/12/05 13:14:17;;;;;;;20.60;12.73;;;6.10;99.90;;;;;;5023080;28;20021;-91
2022/12/05 13:16:49;;;;;;;21.92;12.63;;;6.10;99.90;;;;;;5018186;28;20026;-90
2022/12/05 13:19:46;;;;;;;17.85;12.57;;;6.10;99.90;;;;;;5015372;28;20370;-90
2022/12/05 13:22:16;;;;;;;16.58;11.57;;;6.20;99.90;;;;;;5010417;28;20030;-91
2022/12/05 13:24:45;;;;;;;15.40;11.20;;;6.20;99.90;;;;;;5010446;28;20017;-90
2022/12/05 13:27:26;;;;;;;16.25;11.30;;;6.20;99.90;;;;;;5020565;28;20482;-90
2022/12/05 13:29:59;;;;;;;17.33;11.95;;;6.20;99.90;;;;;;5019918;28;20022;-90